Time;durP1;ratioP1;P1;durP2;ratioP2;P2;SDS_P1;SDS_P2;PMS_P1;PMS_P2;Temp;Humidity;BMP_temperature;BMP_pressure;BME280_temperature;BME280_humidity;BME280_pressure;Samples;Min_cycle;Max_cycle;Signal;HPM_P1;HPM_P2
2022/04/23 00:01:39;;;;;;;10.77;8.13;;;;;;;;;;5030626;28;20438;-63
2022/04/23 00:04:05;;;;;;;13.15;9.18;;;;;;;;;;5032638;28;20056;-63
2022/04/23 00:06:31;;;;;;;11.60;8.13;;;;;;;;;;5013003;28;20090;-63
2022/04/23 00:08:57;;;;;;;11.13;8.48;;;;;;;;;;5028723;28;20537;-63
2022/04/23 00:11:23;;;;;;;13.38;9.27;;;;;;;;;;5053403;28;20121;-63
2022/04/23 00:13:49;;;;;;;12.55;8.90;;;;;;;;;;5020985;28;20797;-64
2022/04/23 00:16:16;;;;;;;12.27;8.02;;;;;;;;;;5053003;28;20036;-63
2022/04/23 00:18:42;;;;;;;12.45;8.13;;;;;;;;;;5066801;28;20037;-63
2022/04/23 00:21:08;;;;;;;14.90;9.02;;;;;;;;;;5013693;28;20060;-62
2022/04/23 00:23:35;;;;;;;13.70;8.30;;;;;;;;;;5055163;28;20052;-63
2022/04/23 00:26:01;;;;;;;12.77;8.77;;;;;;;;;;5026430;28;20049;-63
2022/04/23 00:28:27;;;;;;;13.27;9.27;;;;;;;;;;5054599;28;20188;-63
2022/04/23 00:30:53;;;;;;;14.57;9.27;;;;;;;;;;5028845;28;20111;-63
2022/04/23 00:33:20;;;;;;;12.32;9.85;;;;;;;;;;5030940;28;20049;-63
2022/04/23 00:35:49;;;;;;;12.43;9.43;;;;;;;;;;5036150;28;20043;-64
2022/04/23 00:38:16;;;;;;;18.40;10.07;;;;;;;;;;5033300;28;20045;-64
2022/04/23 00:40:43;;;;;;;14.20;9.27;;;;;;;;;;5041208;28;20053;-64
2022/04/23 00:43:14;;;;;;;16.70;9.65;;;;;;;;;;5030270;28;20061;-63
2022/04/23 00:45:41;;;;;;;15.95;9.45;;;;;;;;;;5013920;28;20049;-63
2022/04/23 00:48:07;;;;;;;14.32;9.90;;;;;;;;;;5031176;28;20046;-62
2022/04/23 00:50:33;;;;;;;10.95;8.57;;;;;;;;;;5032897;28;20045;-62
2022/04/23 00:53:03;;;;;;;13.07;8.43;;;;;;;;;;5028834;28;20049;-62
2022/04/23 00:55:31;;;;;;;13.85;9.40;;;;;;;;;;5032623;28;20029;-61
2022/04/23 00:57:58;;;;;;;12.65;9.85;;;;;;;;;;5032882;28;20103;-62
2022/04/23 01:00:25;;;;;;;12.52;9.57;;;;;;;;;;5035300;28;20049;-62
2022/04/23 01:02:54;;;;;;;14.63;10.35;;;;;;;;;;5030569;28;20053;-61
2022/04/23 01:05:23;;;;;;;12.68;9.15;;;;;;;;;;5065376;28;20059;-61
2022/04/23 01:07:50;;;;;;;7.38;6.63;;;;;;;;;;5033169;28;20063;-61
2022/04/23 01:10:16;;;;;;;9.20;6.05;;;;;;;;;;5032402;28;20087;-62
2022/04/23 01:12:45;;;;;;;11.98;8.25;;;;;;;;;;5034076;28;20057;-62
2022/04/23 01:15:13;;;;;;;13.90;8.82;;;;;;;;;;5031935;28;20056;-63
2022/04/23 01:17:39;;;;;;;11.70;8.77;;;;;;;;;;5031333;28;20045;-62
2022/04/23 01:20:07;;;;;;;12.88;9.15;;;;;;;;;;5052157;28;20056;-62
2022/04/23 01:22:33;;;;;;;20.48;11.52;;;;;;;;;;5032891;28;20144;-62
2022/04/23 01:25:00;;;;;;;13.32;10.20;;;;;;;;;;5036174;28;20619;-62
2022/04/23 01:27:29;;;;;;;16.48;11.13;;;;;;;;;;5031344;28;20048;-61
2022/04/23 01:29:58;;;;;;;13.43;10.02;;;;;;;;;;5056700;28;20176;-61
2022/04/23 01:32:25;;;;;;;15.25;10.75;;;;;;;;;;5040092;28;20034;-62
2022/04/23 01:34:51;;;;;;;15.38;11.05;;;;;;;;;;5026170;28;20148;-61
2022/04/23 01:37:17;;;;;;;14.75;11.18;;;;;;;;;;5038773;28;20328;-61
2022/04/23 01:39:44;;;;;;;12.27;9.65;;;;;;;;;;5060113;28;20041;-62
2022/04/23 01:42:10;;;;;;;13.50;11.52;;;;;;;;;;5015164;28;20057;-63
2022/04/23 01:44:37;;;;;;;16.70;11.15;;;;;;;;;;5034116;28;20399;-62
2022/04/23 01:47:03;;;;;;;14.60;10.73;;;;;;;;;;5035680;28;20054;-62
2022/04/23 01:49:29;;;;;;;13.00;10.02;;;;;;;;;;5065163;28;20037;-60
2022/04/23 01:51:55;;;;;;;15.43;11.27;;;;;;;;;;5031998;28;20440;-61
2022/04/23 01:54:21;;;;;;;13.13;10.65;;;;;;;;;;5031753;28;20045;-62
2022/04/23 01:56:47;;;;;;;20.38;10.77;;;;;;;;;;5031923;28;20037;-62
2022/04/23 01:59:13;;;;;;;16.10;9.95;;;;;;;;;;5026263;28;20182;-61
2022/04/23 02:01:41;;;;;;;16.33;9.32;;;;;;;;;;5039135;28;20075;-62
2022/04/23 02:04:08;;;;;;;15.43;10.30;;;;;;;;;;5035383;28;20480;-64
2022/04/23 02:06:34;;;;;;;16.40;11.80;;;;;;;;;;5019216;28;20041;-62
2022/04/23 02:09:01;;;;;;;14.30;9.10;;;;;;;;;;5033798;28;20124;-63
2022/04/23 02:11:27;;;;;;;13.43;8.50;;;;;;;;;;5034880;28;20073;-61
2022/04/23 02:13:53;;;;;;;13.40;10.43;;;;;;;;;;5036412;28;20073;-63
2022/04/23 02:16:19;;;;;;;18.85;12.07;;;;;;;;;;5036463;28;20305;-61
2022/04/23 02:18:45;;;;;;;14.23;11.45;;;;;;;;;;5066431;28;20053;-61
2022/04/23 02:21:12;;;;;;;13.82;10.73;;;;;;;;;;5059948;28;20080;-61
2022/04/23 02:23:38;;;;;;;15.30;9.98;;;;;;;;;;5035757;28;20045;-64
2022/04/23 02:26:05;;;;;;;15.02;12.30;;;;;;;;;;5067358;28;20049;-62
2022/04/23 02:28:31;;;;;;;20.10;11.70;;;;;;;;;;5037067;28;20484;-61
2022/04/23 02:30:57;;;;;;;16.52;11.23;;;;;;;;;;5053385;28;20404;-62
2022/04/23 02:33:23;;;;;;;16.80;11.50;;;;;;;;;;5036203;28;20459;-62
2022/04/23 02:35:50;;;;;;;14.65;11.10;;;;;;;;;;5035149;28;20037;-62
2022/04/23 02:38:19;;;;;;;15.00;11.55;;;;;;;;;;5073835;28;20041;-62
2022/04/23 02:40:46;;;;;;;16.65;11.50;;;;;;;;;;5054363;28;20119;-61
2022/04/23 02:43:15;;;;;;;15.35;11.50;;;;;;;;;;5040034;28;20729;-63
2022/04/23 02:45:41;;;;;;;12.82;9.43;;;;;;;;;;5036345;28;20052;-61
2022/04/23 02:48:11;;;;;;;15.63;11.38;;;;;;;;;;5033896;28;20080;-62
2022/04/23 02:50:38;;;;;;;15.25;11.60;;;;;;;;;;5038755;28;20064;-62
2022/04/23 02:53:04;;;;;;;16.27;12.02;;;;;;;;;;5027865;28;20045;-61
2022/04/23 02:55:34;;;;;;;15.75;11.30;;;;;;;;;;5034477;28;20042;-62
2022/04/23 02:58:00;;;;;;;14.30;11.25;;;;;;;;;;5031360;28;20526;-64
2022/04/23 03:00:26;;;;;;;13.65;10.88;;;;;;;;;;5030441;28;20037;-63
2022/04/23 03:02:53;;;;;;;15.55;11.48;;;;;;;;;;5054796;28;20160;-64
2022/04/23 03:05:19;;;;;;;16.77;11.40;;;;;;;;;;5034652;28;20071;-63
2022/04/23 03:07:45;;;;;;;14.88;11.90;;;;;;;;;;5027752;28;21267;-64
2022/04/23 03:10:12;;;;;;;13.77;10.68;;;;;;;;;;5037110;28;20033;-62
2022/04/23 03:12:39;;;;;;;13.93;11.40;;;;;;;;;;5035899;28;20593;-63
2022/04/23 03:15:06;;;;;;;15.43;11.43;;;;;;;;;;5017118;28;20506;-63
2022/04/23 03:17:32;;;;;;;12.48;10.50;;;;;;;;;;5052091;28;20118;-64
2022/04/23 03:19:58;;;;;;;14.80;10.07;;;;;;;;;;5039238;28;20633;-65
2022/04/23 03:22:24;;;;;;;15.75;11.55;;;;;;;;;;5034110;28;20041;-63
2022/04/23 03:24:50;;;;;;;13.75;11.55;;;;;;;;;;5032311;28;20045;-64
2022/04/23 03:27:17;;;;;;;14.52;12.23;;;;;;;;;;5034389;28;20513;-63
2022/04/23 03:29:44;;;;;;;14.15;11.10;;;;;;;;;;5030439;28;20063;-62
2022/04/23 03:32:10;;;;;;;13.00;11.70;;;;;;;;;;5034211;28;20045;-63
2022/04/23 03:34:37;;;;;;;16.85;12.27;;;;;;;;;;5031701;28;20052;-62
2022/04/23 03:37:03;;;;;;;14.50;12.00;;;;;;;;;;5056318;28;20073;-62
2022/04/23 03:39:29;;;;;;;13.32;11.30;;;;;;;;;;5034776;28;20049;-63
2022/04/23 03:41:56;;;;;;;14.27;12.40;;;;;;;;;;5039480;28;20156;-63
2022/04/23 03:44:22;;;;;;;13.10;11.32;;;;;;;;;;5052615;28;20045;-62
2022/04/23 03:46:48;;;;;;;13.30;11.48;;;;;;;;;;5030437;28;20037;-63
2022/04/23 03:49:14;;;;;;;14.60;12.90;;;;;;;;;;5028817;28;20041;-63
2022/04/23 03:51:41;;;;;;;14.18;12.70;;;;;;;;;;5032810;28;20086;-64
2022/04/23 03:54:07;;;;;;;13.65;12.35;;;;;;;;;;5055154;28;20037;-64
2022/04/23 03:56:34;;;;;;;15.98;12.32;;;;;;;;;;5054455;28;20033;-64
2022/04/23 03:59:00;;;;;;;14.23;12.73;;;;;;;;;;5030107;28;20410;-63
2022/04/23 04:01:27;;;;;;;14.40;12.70;;;;;;;;;;5031151;28;20036;-65
2022/04/23 04:03:53;;;;;;;14.52;12.38;;;;;;;;;;5030168;28;20073;-63
2022/04/23 04:06:19;;;;;;;13.35;11.95;;;;;;;;;;5048470;28;20038;-65
2022/04/23 04:08:50;;;;;;;15.02;12.70;;;;;;;;;;5012335;28;20103;-64
2022/04/23 04:11:16;;;;;;;16.05;12.75;;;;;;;;;;5013601;28;20033;-65
2022/04/23 04:13:42;;;;;;;14.88;11.93;;;;;;;;;;5029884;28;20047;-63
2022/04/23 04:16:08;;;;;;;13.15;11.77;;;;;;;;;;5029344;28;20486;-63
2022/04/23 04:18:35;;;;;;;13.93;12.40;;;;;;;;;;5013813;28;20076;-63
2022/04/23 04:21:01;;;;;;;12.77;11.38;;;;;;;;;;5017451;28;20052;-64
2022/04/23 04:23:27;;;;;;;13.68;12.25;;;;;;;;;;5013291;28;20064;-65
2022/04/23 04:25:53;;;;;;;14.27;12.18;;;;;;;;;;5056292;28;20121;-64
2022/04/23 04:28:20;;;;;;;13.98;11.20;;;;;;;;;;5025888;28;20045;-64
2022/04/23 04:33:33;;;;;;;11.55;10.35;;;;;;;;;;5055166;28;20115;-64
2022/04/23 04:35:59;;;;;;;13.85;11.57;;;;;;;;;;5053136;28;20447;-63
2022/04/23 04:38:26;;;;;;;13.18;11.30;;;;;;;;;;5028202;28;20045;-62
2022/04/23 04:40:52;;;;;;;14.45;11.40;;;;;;;;;;5053941;28;20418;-64
2022/04/23 04:43:18;;;;;;;12.30;11.10;;;;;;;;;;5030444;28;20055;-63
2022/04/23 04:45:44;;;;;;;13.57;12.07;;;;;;;;;;5013602;28;20048;-63
2022/04/23 04:48:10;;;;;;;14.00;12.25;;;;;;;;;;5063964;28;20057;-64
2022/04/23 04:50:36;;;;;;;13.50;10.95;;;;;;;;;;5054401;28;20036;-63
2022/04/23 04:53:02;;;;;;;13.13;11.35;;;;;;;;;;5063329;28;20110;-63
2022/04/23 04:55:28;;;;;;;14.45;11.32;;;;;;;;;;4998627;28;20041;-63
2022/04/23 04:57:55;;;;;;;12.32;10.60;;;;;;;;;;5014065;28;20041;-63
2022/04/23 05:00:21;;;;;;;11.85;10.63;;;;;;;;;;5028855;28;20090;-62
2022/04/23 05:02:47;;;;;;;12.73;10.95;;;;;;;;;;5029707;28;20037;-60
2022/04/23 05:05:13;;;;;;;13.90;11.68;;;;;;;;;;5017112;28;20037;-62
2022/04/23 05:07:39;;;;;;;13.43;11.80;;;;;;;;;;5055644;28;20045;-61
2022/04/23 05:10:05;;;;;;;13.98;11.10;;;;;;;;;;5031022;28;20033;-59
2022/04/23 05:12:31;;;;;;;13.25;10.15;;;;;;;;;;5015425;28;20497;-61
2022/04/23 05:14:57;;;;;;;12.73;9.68;;;;;;;;;;5014009;28;20073;-61
2022/04/23 05:17:23;;;;;;;11.25;10.20;;;;;;;;;;5035027;28;20400;-61
2022/04/23 05:19:50;;;;;;;12.13;10.50;;;;;;;;;;5034814;28;20048;-63
2022/04/23 05:22:16;;;;;;;12.73;10.95;;;;;;;;;;5032002;28;20095;-62
2022/04/23 05:24:42;;;;;;;12.32;10.45;;;;;;;;;;5032429;28;20048;-63
2022/04/23 05:27:08;;;;;;;10.98;9.82;;;;;;;;;;5027280;28;20049;-63
2022/04/23 05:29:36;;;;;;;10.82;9.82;;;;;;;;;;5025577;28;20047;-63
2022/04/23 05:32:02;;;;;;;13.65;10.20;;;;;;;;;;5030307;28;20041;-64
2022/04/23 05:34:28;;;;;;;11.85;9.77;;;;;;;;;;5033870;28;20042;-63
2022/04/23 05:36:55;;;;;;;10.23;9.23;;;;;;;;;;5041990;28;20536;-62
2022/04/23 05:39:21;;;;;;;10.32;7.55;;;;;;;;;;5035418;28;20108;-64
2022/04/23 05:41:47;;;;;;;9.05;8.10;;;;;;;;;;5065836;28;20053;-63
2022/04/23 05:44:13;;;;;;;10.45;9.45;;;;;;;;;;5061565;28;20107;-63
2022/04/23 05:46:39;;;;;;;10.57;9.48;;;;;;;;;;5035884;28;20056;-63
2022/04/23 05:49:06;;;;;;;9.63;8.63;;;;;;;;;;5040871;28;20430;-63
2022/04/23 05:51:33;;;;;;;9.75;8.55;;;;;;;;;;5040828;28;20045;-63
2022/04/23 05:53:59;;;;;;;9.57;8.50;;;;;;;;;;5030887;28;20038;-64
2022/04/23 05:56:25;;;;;;;9.00;7.10;;;;;;;;;;5004962;28;20096;-63
2022/04/23 05:58:51;;;;;;;11.02;8.85;;;;;;;;;;5031481;28;20045;-62
2022/04/23 06:01:17;;;;;;;10.48;9.45;;;;;;;;;;5054158;28;20052;-63
2022/04/23 06:03:43;;;;;;;10.77;9.35;;;;;;;;;;5038821;28;20116;-63
2022/04/23 06:06:09;;;;;;;9.80;8.77;;;;;;;;;;5059087;28;20079;-63
2022/04/23 06:08:40;;;;;;;9.82;8.85;;;;;;;;;;5023542;28;20561;-63
2022/04/23 06:11:06;;;;;;;12.00;9.35;;;;;;;;;;5043249;28;20585;-62
2022/04/23 06:13:32;;;;;;;9.68;8.70;;;;;;;;;;5038460;28;20037;-62
2022/04/23 06:15:59;;;;;;;8.30;7.50;;;;;;;;;;5020502;28;20033;-62
2022/04/23 06:18:25;;;;;;;8.40;7.38;;;;;;;;;;5018994;28;20132;-62
2022/04/23 06:20:51;;;;;;;9.90;8.90;;;;;;;;;;5034740;28;20076;-64
2022/04/23 06:23:17;;;;;;;9.75;8.55;;;;;;;;;;5038833;28;20040;-63
2022/04/23 06:25:43;;;;;;;10.63;8.57;;;;;;;;;;5033359;28;20041;-62
2022/04/23 06:28:10;;;;;;;6.32;5.18;;;;;;;;;;5056842;28;20155;-63
2022/04/23 06:30:39;;;;;;;9.48;8.07;;;;;;;;;;5029609;28;20123;-63
2022/04/23 06:33:05;;;;;;;10.55;8.52;;;;;;;;;;5056278;28;20052;-63
2022/04/23 06:35:34;;;;;;;9.48;7.70;;;;;;;;;;5030207;28;20044;-67
2022/04/23 06:38:01;;;;;;;9.20;8.40;;;;;;;;;;5056148;28;20045;-63
2022/04/23 06:40:27;;;;;;;6.70;5.88;;;;;;;;;;5015049;28;20042;-62
2022/04/23 06:42:54;;;;;;;7.13;6.15;;;;;;;;;;5015072;28;20434;-61
2022/04/23 06:45:20;;;;;;;8.82;7.60;;;;;;;;;;5030907;28;20135;-63
2022/04/23 06:47:46;;;;;;;6.88;5.50;;;;;;;;;;5046382;28;20046;-64
2022/04/23 06:50:12;;;;;;;9.07;8.25;;;;;;;;;;5054116;28;20403;-63
2022/04/23 06:52:38;;;;;;;7.38;6.60;;;;;;;;;;5036860;28;20037;-64
2022/04/23 06:55:05;;;;;;;7.60;6.90;;;;;;;;;;5031718;28;20033;-64
2022/04/23 06:57:31;;;;;;;8.48;7.68;;;;;;;;;;5012208;28;20502;-63
2022/04/23 06:59:59;;;;;;;8.25;7.50;;;;;;;;;;5030425;28;20045;-63
2022/04/23 07:02:25;;;;;;;6.55;5.93;;;;;;;;;;5053331;28;20041;-63
2022/04/23 07:04:52;;;;;;;9.00;7.85;;;;;;;;;;5033177;28;20037;-64
2022/04/23 07:07:18;;;;;;;8.02;5.35;;;;;;;;;;5030102;28;20111;-64
2022/04/23 07:09:44;;;;;;;8.90;5.93;;;;;;;;;;5039910;28;20407;-65
2022/04/23 07:12:11;;;;;;;8.27;7.47;;;;;;;;;;5030548;28;20045;-63
2022/04/23 07:14:39;;;;;;;8.15;7.35;;;;;;;;;;5027285;28;20516;-61
2022/04/23 07:17:05;;;;;;;9.18;8.18;;;;;;;;;;5040316;28;20056;-62
2022/04/23 07:19:33;;;;;;;8.15;6.18;;;;;;;;;;5017559;28;20037;-62
2022/04/23 07:21:59;;;;;;;9.60;7.85;;;;;;;;;;5055013;28;20042;-62
2022/04/23 07:24:25;;;;;;;9.95;7.93;;;;;;;;;;5029867;28;20041;-61
2022/04/23 07:26:51;;;;;;;9.27;8.38;;;;;;;;;;5063696;28;20091;-63
2022/04/23 07:29:17;;;;;;;7.35;6.65;;;;;;;;;;5037952;28;20041;-62
2022/04/23 07:31:43;;;;;;;8.80;7.93;;;;;;;;;;5031448;28;20052;-62
2022/04/23 07:39:38;;;;;;;6.07;5.05;;;;;;;;;;5062634;28;20053;-62
2022/04/23 07:42:05;;;;;;;6.97;6.30;;;;;;;;;;5053415;28;20049;-61
2022/04/23 07:44:32;;;;;;;7.40;6.65;;;;;;;;;;5064616;28;20049;-62
2022/04/23 07:46:58;;;;;;;8.18;6.53;;;;;;;;;;5033324;28;20038;-61
2022/04/23 07:49:24;;;;;;;7.82;7.03;;;;;;;;;;5065006;28;20041;-60
2022/04/23 07:51:50;;;;;;;6.05;5.45;;;;;;;;;;5064293;28;20183;-62
2022/04/23 07:54:16;;;;;;;9.15;8.25;;;;;;;;;;5032796;28;20531;-61
2022/04/23 07:56:43;;;;;;;7.63;6.80;;;;;;;;;;5064491;28;20046;-62
2022/04/23 07:59:10;;;;;;;7.70;7.00;;;;;;;;;;5032300;28;20111;-62
2022/04/23 08:01:36;;;;;;;8.20;7.50;;;;;;;;;;5032798;28;20041;-62
2022/04/23 08:04:03;;;;;;;4.53;4.13;;;;;;;;;;5064377;28;20522;-62
2022/04/23 08:06:30;;;;;;;6.70;6.00;;;;;;;;;;5032668;28;20041;-62
2022/04/23 08:08:57;;;;;;;6.68;6.03;;;;;;;;;;5048040;28;20052;-61
2022/04/23 08:11:23;;;;;;;5.50;4.78;;;;;;;;;;5031747;28;20510;-62
2022/04/23 08:13:50;;;;;;;7.03;6.43;;;;;;;;;;5064015;28;20045;-61
2022/04/23 08:16:17;;;;;;;6.93;6.32;;;;;;;;;;5047967;28;20033;-61
2022/04/23 08:18:43;;;;;;;7.35;6.47;;;;;;;;;;5032213;28;20142;-62
2022/04/23 08:21:10;;;;;;;8.35;7.35;;;;;;;;;;5064342;28;20697;-61
2022/04/23 08:23:36;;;;;;;8.45;4.57;;;;;;;;;;5047493;28;20069;-62
2022/04/23 08:26:05;;;;;;;6.15;5.60;;;;;;;;;;5063840;28;20629;-62
2022/04/23 08:31:16;;;;;;;7.18;6.50;;;;;;;;;;5031693;28;20052;-62
2022/04/23 08:33:58;;;;;;;6.80;6.20;;;;;;;;;;5063595;28;20052;-61
2022/04/23 08:36:24;;;;;;;5.90;5.05;;;;;;;;;;5063226;28;20109;-62
2022/04/23 08:38:51;;;;;;;8.15;7.35;;;;;;;;;;5062121;28;20471;-63
2022/04/23 08:41:17;;;;;;;8.38;7.53;;;;;;;;;;5062091;28;20116;-63
2022/04/23 08:43:43;;;;;;;8.38;7.18;;;;;;;;;;5028572;28;20060;-62
2022/04/23 08:46:09;;;;;;;8.73;8.02;;;;;;;;;;5062537;28;20114;-63
2022/04/23 08:48:39;;;;;;;8.50;7.70;;;;;;;;;;5061846;28;20041;-63
2022/04/23 08:51:07;;;;;;;8.02;7.32;;;;;;;;;;5062225;28;20071;-63
2022/04/23 08:53:35;;;;;;;8.40;7.40;;;;;;;;;;5061735;28;20045;-63
2022/04/23 08:56:01;;;;;;;7.32;6.57;;;;;;;;;;5063055;28;20053;-62
2022/04/23 08:58:28;;;;;;;8.02;7.35;;;;;;;;;;5031502;28;20491;-61
2022/04/23 09:00:54;;;;;;;8.45;7.63;;;;;;;;;;5031812;28;20364;-61
2022/04/23 09:03:20;;;;;;;6.38;5.78;;;;;;;;;;5046462;28;20057;-62
2022/04/23 09:05:51;;;;;;;7.95;7.22;;;;;;;;;;5031452;28;20531;-61
2022/04/23 09:08:17;;;;;;;7.40;6.70;;;;;;;;;;5031101;28;20084;-62
2022/04/23 09:10:46;;;;;;;8.55;6.70;;;;;;;;;;5063726;28;20042;-63
2022/04/23 09:13:13;;;;;;;8.07;7.32;;;;;;;;;;5035891;28;20116;-62
2022/04/23 09:24:08;;;;;;;7.00;6.28;;;;;;;;;;5067212;28;20551;-61
2022/04/23 09:26:34;;;;;;;6.65;6.05;;;;;;;;;;5050207;28;20599;-63
2022/04/23 09:29:00;;;;;;;8.30;7.43;;;;;;;;;;5032110;28;20049;-62
2022/04/23 09:31:26;;;;;;;9.07;8.10;;;;;;;;;;5065687;28;20041;-63
2022/04/23 09:33:58;;;;;;;6.80;6.20;;;;;;;;;;5033849;28;20613;-63
2022/04/23 09:36:24;;;;;;;6.55;6.05;;;;;;;;;;5065987;28;20045;-64
2022/04/23 09:39:01;;;;;;;7.88;7.10;;;;;;;;;;5065842;28;20057;-63
2022/04/23 09:41:34;;;;;;;4.68;4.28;;;;;;;;;;5033486;28;20057;-63
2022/04/23 09:44:00;;;;;;;;;;;;;;;;;;5066137;28;20053;-63
2022/04/23 09:46:26;;;;;;;6.10;4.90;;;;;;;;;;5034691;28;19917;-62
2022/04/23 09:49:03;;;;;;;5.30;4.78;;;;;;;;;;5034495;28;20530;-61
2022/04/23 09:51:29;;;;;;;5.20;4.75;;;;;;;;;;5034412;28;20049;-63
2022/04/23 09:53:56;;;;;;;5.72;5.22;;;;;;;;;;5065836;28;20356;-63
2022/04/23 09:56:23;;;;;;;4.00;3.30;;;;;;;;;;5065348;28;20041;-63
2022/04/23 09:58:49;;;;;;;6.88;5.07;;;;;;;;;;5065255;28;20128;-64
2022/04/23 10:01:18;;;;;;;4.32;3.83;;;;;;;;;;5065858;28;20108;-64
2022/04/23 10:03:46;;;;;;;4.45;4.15;;;;;;;;;;5065295;28;20049;-64
2022/04/23 10:06:13;;;;;;;5.10;4.63;;;;;;;;;;5065205;28;20499;-64
2022/04/23 10:08:42;;;;;;;2.88;2.08;;;;;;;;;;5065264;28;20053;-64
2022/04/23 10:11:12;;;;;;;5.78;5.28;;;;;;;;;;5065193;28;20046;-64
2022/04/23 10:13:44;;;;;;;5.28;4.57;;;;;;;;;;5032826;28;20034;-63
2022/04/23 10:16:11;;;;;;;4.30;3.92;;;;;;;;;;5065015;28;20120;-64
2022/04/23 10:18:40;;;;;;;5.20;4.50;;;;;;;;;;5033913;28;20045;-62
2022/04/23 10:21:10;;;;;;;5.03;4.53;;;;;;;;;;5033664;28;20045;-64
2022/04/23 10:23:49;;;;;;;4.30;3.03;;;;;;;;;;5064444;28;20403;-64
2022/04/23 10:26:19;;;;;;;2.90;2.55;;;;;;;;;;5065968;28;20136;-62
2022/04/23 10:28:45;;;;;;;4.95;4.20;;;;;;;;;;5066041;28;20053;-61
2022/04/23 10:31:15;;;;;;;3.47;3.00;;;;;;;;;;5066355;28;20042;-62
2022/04/23 10:33:50;;;;;;;3.53;3.25;;;;;;;;;;5065802;28;20049;-61
2022/04/23 10:36:16;;;;;;;4.60;4.25;;;;;;;;;;5034005;28;20052;-62
2022/04/23 10:38:44;;;;;;;4.45;4.05;;;;;;;;;;5066468;28;20045;-61
2022/04/23 10:41:12;;;;;;;3.78;3.03;;;;;;;;;;5065470;28;20060;-63
2022/04/23 10:43:52;;;;;;;2.38;1.50;;;;;;;;;;5064795;28;20093;-64
2022/04/23 10:46:37;;;;;;;3.65;3.35;;;;;;;;;;5032805;28;20041;-63
2022/04/23 10:49:18;;;;;;;4.50;2.47;;;;;;;;;;5064028;28;20045;-63
2022/04/23 10:51:48;;;;;;;2.75;2.08;;;;;;;;;;5064369;28;20045;-64
2022/04/23 10:54:16;;;;;;;3.70;3.40;;;;;;;;;;5064293;28;20123;-64
2022/04/23 10:56:42;;;;;;;4.30;3.22;;;;;;;;;;5063851;28;20525;-64
2022/04/23 10:59:27;;;;;;;3.30;3.00;;;;;;;;;;5063866;28;20144;-64
2022/04/23 11:01:53;;;;;;;3.05;2.75;;;;;;;;;;5047185;28;20045;-64
2022/04/23 11:04:20;;;;;;;3.33;2.47;;;;;;;;;;5064210;28;20042;-63
2022/04/23 11:12:33;;;;;;;3.17;1.83;;;;;;;;;;5044556;28;20137;-64
2022/04/23 11:15:00;;;;;;;3.28;3.08;;;;;;;;;;5063698;28;20041;-64
2022/04/23 11:17:36;;;;;;;3.47;2.65;;;;;;;;;;5064064;28;20072;-63
2022/04/23 11:20:02;;;;;;;3.08;2.63;;;;;;;;;;5063803;28;20095;-62
2022/04/23 11:22:28;;;;;;;3.10;2.70;;;;;;;;;;5064969;28;20104;-63
2022/04/23 11:24:57;;;;;;;3.60;2.70;;;;;;;;;;5064837;28;20057;-62
2022/04/23 11:27:36;;;;;;;2.67;2.42;;;;;;;;;;5045934;28;20045;-63
2022/04/23 11:30:02;;;;;;;2.90;2.53;;;;;;;;;;5063563;28;20590;-63
2022/04/23 11:32:29;;;;;;;2.13;1.90;;;;;;;;;;5047681;28;20041;-62
2022/04/23 11:34:59;;;;;;;2.90;2.03;;;;;;;;;;5031922;28;20048;-63
2022/04/23 11:37:35;;;;;;;3.30;2.38;;;;;;;;;;5064669;28;20475;-62
2022/04/23 11:40:16;;;;;;;2.58;2.20;;;;;;;;;;5032355;28;20128;-61
2022/04/23 11:42:46;;;;;;;2.50;2.20;;;;;;;;;;5063994;28;20064;-62
2022/04/23 11:45:17;;;;;;;3.28;1.30;;;;;;;;;;5064114;28;20069;-61
2022/04/23 11:47:43;;;;;;;3.53;2.85;;;;;;;;;;5064185;28;20045;-61
2022/04/23 11:50:16;;;;;;;2.17;1.73;;;;;;;;;;5062100;28;20374;-63
2022/04/23 11:52:42;;;;;;;;;;;;;;;;;;5028857;28;20037;-63
2022/04/23 11:55:19;;;;;;;4.40;2.97;;;;;;;;;;5027533;28;19920;-62
2022/04/23 11:57:53;;;;;;;4.10;3.03;;;;;;;;;;5019190;28;20041;-63
2022/04/23 12:00:21;;;;;;;2.95;2.67;;;;;;;;;;5011546;28;20154;-62
2022/04/23 12:02:47;;;;;;;5.95;2.75;;;;;;;;;;5011261;28;20041;-62
2022/04/23 12:05:21;;;;;;;3.38;2.60;;;;;;;;;;4995884;28;20041;-63
2022/04/23 12:07:47;;;;;;;3.03;2.22;;;;;;;;;;5028413;28;20179;-63
2022/04/23 12:10:13;;;;;;;2.72;2.53;;;;;;;;;;5028148;28;20037;-63
2022/04/23 12:12:40;;;;;;;4.75;2.17;;;;;;;;;;5011789;28;20487;-63
2022/04/23 12:15:11;;;;;;;2.35;2.15;;;;;;;;;;5047342;28;20064;-63
2022/04/23 12:17:53;;;;;;;2.58;2.17;;;;;;;;;;5058646;28;20040;-62
2022/04/23 12:20:20;;;;;;;2.17;1.55;;;;;;;;;;5025773;28;20119;-63
2022/04/23 12:22:56;;;;;;;2.78;1.85;;;;;;;;;;5028493;28;20081;-64
2022/04/23 12:25:25;;;;;;;2.80;1.75;;;;;;;;;;5044776;28;20063;-63
2022/04/23 12:42:04;;;;;;;2.15;1.70;;;;;;;;;;5028498;28;20450;-61
2022/04/23 12:44:44;;;;;;;2.95;1.58;;;;;;;;;;5028404;28;20557;-61
2022/04/23 12:47:19;;;;;;;1.92;1.00;;;;;;;;;;5029916;28;20388;-61
2022/04/23 12:49:49;;;;;;;1.98;0.80;;;;;;;;;;5055645;28;20069;-61
2022/04/23 12:52:18;;;;;;;1.45;1.08;;;;;;;;;;5028437;28;20049;-62
2022/04/23 12:55:03;;;;;;;1.48;1.10;;;;;;;;;;5030715;28;20447;-61
2022/04/23 12:57:30;;;;;;;3.10;1.05;;;;;;;;;;5059788;28;20041;-62
2022/04/23 12:59:56;;;;;;;3.00;1.25;;;;;;;;;;5031070;28;20041;-62
2022/04/23 13:02:22;;;;;;;3.00;1.35;;;;;;;;;;5028527;28;20041;-63
2022/04/23 13:04:48;;;;;;;1.83;1.15;;;;;;;;;;5026877;28;20065;-64
2022/04/23 13:10:03;;;;;;;3.90;1.33;;;;;;;;;;4991561;28;20054;-64
2022/04/23 13:12:30;;;;;;;2.03;0.73;;;;;;;;;;5029657;28;20037;-64
2022/04/23 13:14:56;;;;;;;1.73;1.17;;;;;;;;;;5028467;28;20167;-64
2022/04/23 13:17:23;;;;;;;4.13;1.30;;;;;;;;;;5028801;28;20473;-64
2022/04/23 13:19:50;;;;;;;2.35;1.20;;;;;;;;;;5012377;28;20037;-63
2022/04/23 13:22:16;;;;;;;3.65;1.35;;;;;;;;;;5029801;28;20398;-64
2022/04/23 13:24:42;;;;;;;3.65;1.35;;;;;;;;;;5012235;28;20037;-64
2022/04/23 13:27:08;;;;;;;1.20;0.88;;;;;;;;;;5011692;28;20077;-64
2022/04/23 13:29:34;;;;;;;3.63;0.90;;;;;;;;;;5011708;28;20052;-64
2022/04/23 13:32:01;;;;;;;2.53;1.00;;;;;;;;;;5029696;28;20041;-64
2022/04/23 13:34:27;;;;;;;1.67;0.85;;;;;;;;;;5028495;28;20048;-64
2022/04/23 13:36:53;;;;;;;2.05;1.10;;;;;;;;;;5012102;28;20367;-64
2022/04/23 13:39:19;;;;;;;3.00;1.10;;;;;;;;;;5028678;28;20107;-64
2022/04/23 13:41:46;;;;;;;1.20;1.00;;;;;;;;;;5011521;28;20061;-64
2022/04/23 13:44:14;;;;;;;3.17;1.20;;;;;;;;;;5028294;28;20049;-64
2022/04/23 13:46:40;;;;;;;2.30;1.10;;;;;;;;;;5011862;28;20056;-63
2022/04/23 13:49:06;;;;;;;2.63;1.25;;;;;;;;;;5028136;28;20115;-63
2022/04/23 13:51:33;;;;;;;3.55;1.50;;;;;;;;;;5028071;28;20055;-64
2022/04/23 13:54:00;;;;;;;1.55;1.08;;;;;;;;;;5011694;28;20041;-63
2022/04/23 13:56:26;;;;;;;2.25;0.95;;;;;;;;;;5027905;28;20041;-65
2022/04/23 13:58:52;;;;;;;1.98;1.20;;;;;;;;;;5031467;28;20491;-63
2022/04/23 14:01:18;;;;;;;1.40;1.00;;;;;;;;;;5032167;28;20041;-64
2022/04/23 14:11:58;;;;;;;2.17;1.30;;;;;;;;;;5031582;28;20049;-64
2022/04/23 14:14:25;;;;;;;1.50;1.00;;;;;;;;;;5031565;28;20048;-64
2022/04/23 14:16:51;;;;;;;3.65;1.27;;;;;;;;;;5031457;28;20045;-64
2022/04/23 14:19:17;;;;;;;1.75;0.75;;;;;;;;;;5031379;28;20220;-64
2022/04/23 14:21:43;;;;;;;2.10;0.90;;;;;;;;;;5015003;28;20476;-67
2022/04/23 14:24:09;;;;;;;3.80;1.08;;;;;;;;;;5031332;28;20872;-64
2022/04/23 14:26:35;;;;;;;2.97;1.20;;;;;;;;;;5032358;28;20399;-64
2022/04/23 14:29:02;;;;;;;3.08;1.10;;;;;;;;;;5014667;28;20046;-65
2022/04/23 14:31:28;;;;;;;1.48;0.75;;;;;;;;;;5032448;28;20647;-64
2022/04/23 14:33:55;;;;;;;2.47;0.95;;;;;;;;;;5032406;28;20041;-65
2022/04/23 14:36:21;;;;;;;2.70;0.85;;;;;;;;;;5031187;28;20077;-63
2022/04/23 14:38:47;;;;;;;3.65;1.20;;;;;;;;;;5031100;28;20060;-64
2022/04/23 14:41:13;;;;;;;2.72;1.23;;;;;;;;;;5014611;28;20053;-64
2022/04/23 14:43:40;;;;;;;1.67;1.00;;;;;;;;;;5033180;28;20049;-62
2022/04/23 14:46:06;;;;;;;1.75;1.52;;;;;;;;;;5032317;28;20499;-61
2022/04/23 14:48:32;;;;;;;3.40;1.35;;;;;;;;;;5032225;28;20077;-61
2022/04/23 14:53:43;;;;;;;2.13;1.20;;;;;;;;;;5032143;28;20041;-62
2022/04/23 14:56:10;;;;;;;2.20;1.08;;;;;;;;;;5032255;28;20079;-63
2022/04/23 14:58:36;;;;;;;1.58;0.90;;;;;;;;;;5032197;28;20112;-61
2022/04/23 15:01:02;;;;;;;3.30;1.40;;;;;;;;;;5031845;28;20045;-62
2022/04/23 15:03:28;;;;;;;3.47;1.10;;;;;;;;;;5015770;28;20400;-61
2022/04/23 15:05:55;;;;;;;1.05;0.90;;;;;;;;;;5015831;28;20077;-63
2022/04/23 15:08:21;;;;;;;2.10;1.00;;;;;;;;;;5031895;28;20099;-63
2022/04/23 15:10:47;;;;;;;3.33;1.50;;;;;;;;;;5033090;28;20048;-62
2022/04/23 15:13:14;;;;;;;4.22;1.30;;;;;;;;;;5015534;28;20033;-62
2022/04/23 15:15:40;;;;;;;1.42;0.98;;;;;;;;;;5032078;28;20041;-62
2022/04/23 15:18:06;;;;;;;1.02;0.60;;;;;;;;;;5031755;28;20136;-62
2022/04/23 15:20:35;;;;;;;2.85;1.40;;;;;;;;;;5015132;28;20041;-62
2022/04/23 15:23:01;;;;;;;1.52;1.33;;;;;;;;;;5033063;28;20186;-62
2022/04/23 15:25:27;;;;;;;1.52;1.10;;;;;;;;;;5033229;28;20570;-62
2022/04/23 15:27:54;;;;;;;3.50;1.40;;;;;;;;;;5032877;28;20393;-63
2022/04/23 15:30:23;;;;;;;2.92;1.42;;;;;;;;;;5032798;28;20045;-62